sensor_id;sensor_type;location;lat;lon;timestamp;P1;durP1;ratioP1;P2;durP2;ratioP2
7213;SDS011;3648;50.614;13.830;2023-07-20T00:01:33;1.37;;;1.27;;
7213;SDS011;3648;50.614;13.830;2023-07-20T00:04:00;2.53;;;1.83;;
7213;SDS011;3648;50.614;13.830;2023-07-20T00:06:28;1.60;;;1.50;;
7213;SDS011;3648;50.614;13.830;2023-07-20T00:08:55;2.50;;;2.30;;
7213;SDS011;3648;50.614;13.830;2023-07-20T00:11:25;2.13;;;1.93;;
7213;SDS011;3648;50.614;13.830;2023-07-20T00:13:53;5.73;;;2.50;;
7213;SDS011;3648;50.614;13.830;2023-07-20T00:16:20;2.27;;;2.00;;
7213;SDS011;3648;50.614;13.830;2023-07-20T00:18:47;2.93;;;2.40;;
7213;SDS011;3648;50.614;13.830;2023-07-20T00:21:14;2.43;;;2.23;;
7213;SDS011;3648;50.614;13.830;2023-07-20T00:23:42;5.07;;;3.43;;
7213;SDS011;3648;50.614;13.830;2023-07-20T00:26:09;6.40;;;3.10;;
7213;SDS011;3648;50.614;13.830;2023-07-20T00:28:36;3.73;;;3.43;;
7213;SDS011;3648;50.614;13.830;2023-07-20T00:31:03;4.10;;;3.30;;
7213;SDS011;3648;50.614;13.830;2023-07-20T00:33:30;4.73;;;3.40;;
7213;SDS011;3648;50.614;13.830;2023-07-20T00:35:57;3.93;;;3.63;;
7213;SDS011;3648;50.614;13.830;2023-07-20T00:38:24;4.53;;;3.80;;
7213;SDS011;3648;50.614;13.830;2023-07-20T00:40:53;3.90;;;3.60;;
7213;SDS011;3648;50.614;13.830;2023-07-20T00:43:19;4.13;;;3.40;;
7213;SDS011;3648;50.614;13.830;2023-07-20T00:45:46;3.93;;;3.37;;
7213;SDS011;3648;50.614;13.830;2023-07-20T00:48:13;4.30;;;3.20;;
7213;SDS011;3648;50.614;13.830;2023-07-20T00:50:41;3.67;;;3.23;;
7213;SDS011;3648;50.614;13.830;2023-07-20T00:53:09;3.77;;;3.43;;
7213;SDS011;3648;50.614;13.830;2023-07-20T00:55:36;3.73;;;3.37;;
7213;SDS011;3648;50.614;13.830;2023-07-20T00:58:04;4.03;;;3.60;;
7213;SDS011;3648;50.614;13.830;2023-07-20T01:00:32;4.07;;;3.20;;
7213;SDS011;3648;50.614;13.830;2023-07-20T01:02:59;4.03;;;3.63;;
7213;SDS011;3648;50.614;13.830;2023-07-20T01:05:27;4.13;;;3.73;;
7213;SDS011;3648;50.614;13.830;2023-07-20T01:08:06;3.20;;;2.90;;
7213;SDS011;3648;50.614;13.830;2023-07-20T01:10:39;3.00;;;2.80;;
7213;SDS011;3648;50.614;13.830;2023-07-20T01:13:09;2.63;;;2.40;;
7213;SDS011;3648;50.614;13.830;2023-07-20T01:15:37;2.63;;;2.43;;
7213;SDS011;3648;50.614;13.830;2023-07-20T01:18:04;2.77;;;2.57;;
7213;SDS011;3648;50.614;13.830;2023-07-20T01:20:31;3.00;;;2.67;;
7213;SDS011;3648;50.614;13.830;2023-07-20T01:26:02;2.87;;;2.60;;
7213;SDS011;3648;50.614;13.830;2023-07-20T01:28:55;2.77;;;2.47;;
7213;SDS011;3648;50.614;13.830;2023-07-20T01:31:32;3.47;;;2.50;;
7213;SDS011;3648;50.614;13.830;2023-07-20T01:34:01;2.60;;;2.40;;
7213;SDS011;3648;50.614;13.830;2023-07-20T01:36:30;4.17;;;2.80;;
7213;SDS011;3648;50.614;13.830;2023-07-20T01:39:01;3.40;;;3.10;;
7213;SDS011;3648;50.614;13.830;2023-07-20T01:41:29;3.30;;;3.00;;
7213;SDS011;3648;50.614;13.830;2023-07-20T01:43:57;3.43;;;2.93;;
7213;SDS011;3648;50.614;13.830;2023-07-20T01:46:25;3.00;;;2.80;;
7213;SDS011;3648;50.614;13.830;2023-07-20T01:48:54;3.27;;;2.60;;
7213;SDS011;3648;50.614;13.830;2023-07-20T01:51:21;3.83;;;2.80;;
7213;SDS011;3648;50.614;13.830;2023-07-20T01:53:48;2.97;;;2.60;;
7213;SDS011;3648;50.614;13.830;2023-07-20T01:56:15;3.27;;;2.93;;
7213;SDS011;3648;50.614;13.830;2023-07-20T01:58:42;3.53;;;3.23;;
7213;SDS011;3648;50.614;13.830;2023-07-20T02:01:09;2.70;;;2.50;;
7213;SDS011;3648;50.614;13.830;2023-07-20T02:03:36;2.97;;;2.67;;
7213;SDS011;3648;50.614;13.830;2023-07-20T02:06:04;3.00;;;2.70;;
7213;SDS011;3648;50.614;13.830;2023-07-20T02:08:31;2.60;;;2.40;;
7213;SDS011;3648;50.614;13.830;2023-07-20T02:10:58;3.00;;;2.53;;
7213;SDS011;3648;50.614;13.830;2023-07-20T02:13:26;2.73;;;2.53;;
7213;SDS011;3648;50.614;13.830;2023-07-20T02:15:53;3.00;;;2.50;;
7213;SDS011;3648;50.614;13.830;2023-07-20T02:18:19;2.57;;;2.37;;
7213;SDS011;3648;50.614;13.830;2023-07-20T02:20:46;2.63;;;2.43;;
7213;SDS011;3648;50.614;13.830;2023-07-20T02:23:15;3.00;;;2.57;;
7213;SDS011;3648;50.614;13.830;2023-07-20T02:25:42;2.80;;;2.37;;
7213;SDS011;3648;50.614;13.830;2023-07-20T02:28:10;2.63;;;2.43;;
7213;SDS011;3648;50.614;13.830;2023-07-20T02:30:39;2.30;;;2.10;;
7213;SDS011;3648;50.614;13.830;2023-07-20T02:33:06;2.17;;;1.97;;
7213;SDS011;3648;50.614;13.830;2023-07-20T02:35:34;2.57;;;2.13;;
7213;SDS011;3648;50.614;13.830;2023-07-20T02:38:00;4.23;;;2.00;;
7213;SDS011;3648;50.614;13.830;2023-07-20T02:40:29;2.43;;;2.23;;
7213;SDS011;3648;50.614;13.830;2023-07-20T02:42:56;2.20;;;2.00;;
7213;SDS011;3648;50.614;13.830;2023-07-20T02:45:23;2.40;;;2.20;;
7213;SDS011;3648;50.614;13.830;2023-07-20T02:47:50;2.70;;;2.50;;
7213;SDS011;3648;50.614;13.830;2023-07-20T02:50:17;3.30;;;2.50;;
7213;SDS011;3648;50.614;13.830;2023-07-20T02:52:44;2.40;;;2.20;;
7213;SDS011;3648;50.614;13.830;2023-07-20T02:55:11;2.60;;;2.40;;
7213;SDS011;3648;50.614;13.830;2023-07-20T02:57:40;2.23;;;2.07;;
7213;SDS011;3648;50.614;13.830;2023-07-20T03:00:07;4.57;;;2.73;;
7213;SDS011;3648;50.614;13.830;2023-07-20T03:02:35;2.37;;;2.17;;
7213;SDS011;3648;50.614;13.830;2023-07-20T03:05:02;2.50;;;2.30;;
7213;SDS011;3648;50.614;13.830;2023-07-20T03:07:32;2.20;;;2.00;;
7213;SDS011;3648;50.614;13.830;2023-07-20T03:09:59;2.37;;;2.00;;
7213;SDS011;3648;50.614;13.830;2023-07-20T03:12:26;2.70;;;2.13;;
7213;SDS011;3648;50.614;13.830;2023-07-20T03:14:54;2.47;;;2.27;;
7213;SDS011;3648;50.614;13.830;2023-07-20T03:17:22;1.80;;;1.70;;
7213;SDS011;3648;50.614;13.830;2023-07-20T03:19:49;2.70;;;2.07;;
7213;SDS011;3648;50.614;13.830;2023-07-20T03:22:15;2.13;;;2.00;;
7213;SDS011;3648;50.614;13.830;2023-07-20T03:24:42;2.70;;;2.50;;
7213;SDS011;3648;50.614;13.830;2023-07-20T03:27:09;2.50;;;2.30;;
7213;SDS011;3648;50.614;13.830;2023-07-20T03:29:36;2.47;;;2.27;;
7213;SDS011;3648;50.614;13.830;2023-07-20T03:32:05;3.60;;;2.53;;
7213;SDS011;3648;50.614;13.830;2023-07-20T03:34:32;3.23;;;2.67;;
7213;SDS011;3648;50.614;13.830;2023-07-20T03:36:59;2.40;;;2.20;;
7213;SDS011;3648;50.614;13.830;2023-07-20T03:39:29;2.70;;;2.50;;
7213;SDS011;3648;50.614;13.830;2023-07-20T03:41:57;2.87;;;2.50;;
7213;SDS011;3648;50.614;13.830;2023-07-20T03:44:24;3.73;;;2.30;;
7213;SDS011;3648;50.614;13.830;2023-07-20T03:46:51;2.93;;;2.63;;
7213;SDS011;3648;50.614;13.830;2023-07-20T03:49:19;4.07;;;2.87;;
7213;SDS011;3648;50.614;13.830;2023-07-20T03:51:46;3.13;;;2.60;;
7213;SDS011;3648;50.614;13.830;2023-07-20T03:54:13;3.70;;;2.83;;
7213;SDS011;3648;50.614;13.830;2023-07-20T03:56:41;3.20;;;2.37;;
7213;SDS011;3648;50.614;13.830;2023-07-20T03:59:08;4.20;;;2.73;;
7213;SDS011;3648;50.614;13.830;2023-07-20T04:01:35;2.60;;;2.30;;
7213;SDS011;3648;50.614;13.830;2023-07-20T04:04:04;2.70;;;2.50;;
7213;SDS011;3648;50.614;13.830;2023-07-20T04:06:34;2.60;;;2.30;;
7213;SDS011;3648;50.614;13.830;2023-07-20T04:09:01;3.73;;;2.67;;
7213;SDS011;3648;50.614;13.830;2023-07-20T04:11:29;3.17;;;2.30;;
7213;SDS011;3648;50.614;13.830;2023-07-20T04:13:57;2.47;;;2.27;;
7213;SDS011;3648;50.614;13.830;2023-07-20T04:16:24;2.80;;;2.50;;
7213;SDS011;3648;50.614;13.830;2023-07-20T04:18:51;2.53;;;2.20;;
7213;SDS011;3648;50.614;13.830;2023-07-20T04:21:18;2.67;;;2.47;;
7213;SDS011;3648;50.614;13.830;2023-07-20T04:23:46;2.97;;;2.40;;
7213;SDS011;3648;50.614;13.830;2023-07-20T04:26:13;2.50;;;2.30;;
7213;SDS011;3648;50.614;13.830;2023-07-20T04:28:40;2.40;;;2.20;;
7213;SDS011;3648;50.614;13.830;2023-07-20T04:31:11;2.73;;;2.50;;
7213;SDS011;3648;50.614;13.830;2023-07-20T04:33:39;2.67;;;2.20;;
7213;SDS011;3648;50.614;13.830;2023-07-20T04:36:06;3.83;;;2.70;;
7213;SDS011;3648;50.614;13.830;2023-07-20T04:38:34;3.47;;;2.30;;
7213;SDS011;3648;50.614;13.830;2023-07-20T04:41:02;2.37;;;2.17;;
7213;SDS011;3648;50.614;13.830;2023-07-20T04:43:29;2.43;;;2.23;;
7213;SDS011;3648;50.614;13.830;2023-07-20T04:45:56;2.97;;;2.60;;
7213;SDS011;3648;50.614;13.830;2023-07-20T04:48:23;2.53;;;2.33;;
7213;SDS011;3648;50.614;13.830;2023-07-20T04:50:50;3.17;;;2.60;;
7213;SDS011;3648;50.614;13.830;2023-07-20T04:53:17;2.50;;;2.30;;
7213;SDS011;3648;50.614;13.830;2023-07-20T04:55:48;2.50;;;2.10;;
7213;SDS011;3648;50.614;13.830;2023-07-20T04:58:18;3.13;;;2.63;;
7213;SDS011;3648;50.614;13.830;2023-07-20T05:00:45;2.20;;;1.97;;
7213;SDS011;3648;50.614;13.830;2023-07-20T05:03:12;2.37;;;2.10;;
7213;SDS011;3648;50.614;13.830;2023-07-20T05:05:39;2.63;;;2.00;;
7213;SDS011;3648;50.614;13.830;2023-07-20T05:08:06;2.47;;;2.27;;
7213;SDS011;3648;50.614;13.830;2023-07-20T05:10:33;3.77;;;2.33;;
7213;SDS011;3648;50.614;13.830;2023-07-20T05:13:00;3.27;;;2.97;;
7213;SDS011;3648;50.614;13.830;2023-07-20T05:15:28;4.93;;;2.67;;
7213;SDS011;3648;50.614;13.830;2023-07-20T05:17:55;2.50;;;2.30;;
7213;SDS011;3648;50.614;13.830;2023-07-20T05:20:22;2.23;;;2.03;;
7213;SDS011;3648;50.614;13.830;2023-07-20T05:22:49;2.73;;;2.43;;
7213;SDS011;3648;50.614;13.830;2023-07-20T05:25:17;4.47;;;2.60;;
7213;SDS011;3648;50.614;13.830;2023-07-20T05:27:47;2.67;;;2.47;;
7213;SDS011;3648;50.614;13.830;2023-07-20T05:30:15;3.00;;;2.63;;
7213;SDS011;3648;50.614;13.830;2023-07-20T05:32:44;2.67;;;2.47;;
7213;SDS011;3648;50.614;13.830;2023-07-20T05:35:16;3.27;;;2.57;;
7213;SDS011;3648;50.614;13.830;2023-07-20T05:37:43;4.03;;;2.43;;
7213;SDS011;3648;50.614;13.830;2023-07-20T05:40:10;2.43;;;2.20;;
7213;SDS011;3648;50.614;13.830;2023-07-20T05:42:38;3.27;;;2.37;;
7213;SDS011;3648;50.614;13.830;2023-07-20T05:45:05;2.47;;;2.27;;
7213;SDS011;3648;50.614;13.830;2023-07-20T05:47:33;3.73;;;2.57;;
7213;SDS011;3648;50.614;13.830;2023-07-20T05:50:01;3.27;;;2.67;;
7213;SDS011;3648;50.614;13.830;2023-07-20T05:52:29;2.80;;;2.60;;
7213;SDS011;3648;50.614;13.830;2023-07-20T05:54:56;3.10;;;2.67;;
7213;SDS011;3648;50.614;13.830;2023-07-20T05:57:23;2.97;;;2.70;;
7213;SDS011;3648;50.614;13.830;2023-07-20T05:59:50;4.40;;;2.50;;
7213;SDS011;3648;50.614;13.830;2023-07-20T06:02:17;2.67;;;2.40;;
7213;SDS011;3648;50.614;13.830;2023-07-20T06:04:44;2.60;;;2.40;;
7213;SDS011;3648;50.614;13.830;2023-07-20T06:07:12;3.67;;;2.33;;
7213;SDS011;3648;50.614;13.830;2023-07-20T06:09:39;2.90;;;2.60;;
7213;SDS011;3648;50.614;13.830;2023-07-20T06:12:07;2.67;;;2.30;;
7213;SDS011;3648;50.614;13.830;2023-07-20T06:14:36;2.57;;;2.17;;
7213;SDS011;3648;50.614;13.830;2023-07-20T06:17:03;2.77;;;2.33;;
7213;SDS011;3648;50.614;13.830;2023-07-20T06:19:30;3.07;;;2.20;;
7213;SDS011;3648;50.614;13.830;2023-07-20T06:21:57;3.17;;;2.43;;
7213;SDS011;3648;50.614;13.830;2023-07-20T06:24:26;4.17;;;2.63;;
7213;SDS011;3648;50.614;13.830;2023-07-20T06:26:53;2.67;;;2.37;;
7213;SDS011;3648;50.614;13.830;2023-07-20T06:29:20;2.50;;;2.30;;
7213;SDS011;3648;50.614;13.830;2023-07-20T06:31:47;2.37;;;2.17;;
7213;SDS011;3648;50.614;13.830;2023-07-20T06:34:14;2.77;;;2.20;;
7213;SDS011;3648;50.614;13.830;2023-07-20T06:36:41;2.53;;;2.33;;
7213;SDS011;3648;50.614;13.830;2023-07-20T06:39:08;2.60;;;2.40;;
7213;SDS011;3648;50.614;13.830;2023-07-20T06:41:36;2.73;;;2.23;;
7213;SDS011;3648;50.614;13.830;2023-07-20T06:44:03;3.90;;;3.00;;
7213;SDS011;3648;50.614;13.830;2023-07-20T06:46:31;2.57;;;2.10;;
7213;SDS011;3648;50.614;13.830;2023-07-20T06:48:58;2.50;;;2.20;;
7213;SDS011;3648;50.614;13.830;2023-07-20T06:51:25;3.50;;;2.30;;
7213;SDS011;3648;50.614;13.830;2023-07-20T06:53:52;2.40;;;2.20;;
7213;SDS011;3648;50.614;13.830;2023-07-20T06:56:19;5.03;;;2.33;;
7213;SDS011;3648;50.614;13.830;2023-07-20T06:58:48;2.63;;;2.37;;
7213;SDS011;3648;50.614;13.830;2023-07-20T07:01:15;2.40;;;2.20;;
7213;SDS011;3648;50.614;13.830;2023-07-20T07:03:42;3.90;;;2.30;;
7213;SDS011;3648;50.614;13.830;2023-07-20T07:06:10;4.47;;;2.53;;
7213;SDS011;3648;50.614;13.830;2023-07-20T07:08:37;3.00;;;2.70;;
7213;SDS011;3648;50.614;13.830;2023-07-20T07:11:04;3.07;;;2.10;;
7213;SDS011;3648;50.614;13.830;2023-07-20T07:13:31;2.70;;;2.40;;
7213;SDS011;3648;50.614;13.830;2023-07-20T07:16:00;3.77;;;2.70;;
7213;SDS011;3648;50.614;13.830;2023-07-20T07:18:27;3.33;;;2.63;;
7213;SDS011;3648;50.614;13.830;2023-07-20T07:20:54;2.67;;;2.47;;
7213;SDS011;3648;50.614;13.830;2023-07-20T07:23:21;2.93;;;2.33;;
7213;SDS011;3648;50.614;13.830;2023-07-20T07:25:48;2.77;;;2.57;;
7213;SDS011;3648;50.614;13.830;2023-07-20T07:28:15;2.70;;;2.50;;
7213;SDS011;3648;50.614;13.830;2023-07-20T07:30:42;3.37;;;2.47;;
7213;SDS011;3648;50.614;13.830;2023-07-20T07:33:11;2.63;;;2.43;;
7213;SDS011;3648;50.614;13.830;2023-07-20T07:35:38;4.27;;;2.30;;
7213;SDS011;3648;50.614;13.830;2023-07-20T07:38:05;2.00;;;1.80;;
7213;SDS011;3648;50.614;13.830;2023-07-20T07:40:32;3.77;;;2.20;;
7213;SDS011;3648;50.614;13.830;2023-07-20T07:43:00;3.73;;;1.90;;
7213;SDS011;3648;50.614;13.830;2023-07-20T07:45:27;2.50;;;2.30;;
7213;SDS011;3648;50.614;13.830;2023-07-20T07:47:54;3.53;;;2.10;;
7213;SDS011;3648;50.614;13.830;2023-07-20T07:50:22;2.00;;;1.80;;
7213;SDS011;3648;50.614;13.830;2023-07-20T07:52:50;3.10;;;2.00;;
7213;SDS011;3648;50.614;13.830;2023-07-20T07:55:17;2.07;;;1.60;;
7213;SDS011;3648;50.614;13.830;2023-07-20T07:57:44;1.60;;;1.50;;
7213;SDS011;3648;50.614;13.830;2023-07-20T08:00:12;1.67;;;1.57;;
7213;SDS011;3648;50.614;13.830;2023-07-20T08:02:44;2.93;;;1.87;;
7213;SDS011;3648;50.614;13.830;2023-07-20T08:05:11;2.27;;;1.70;;
7213;SDS011;3648;50.614;13.830;2023-07-20T08:07:39;1.70;;;1.57;;
7213;SDS011;3648;50.614;13.830;2023-07-20T08:10:07;1.87;;;1.70;;
7213;SDS011;3648;50.614;13.830;2023-07-20T08:12:35;1.70;;;1.60;;
7213;SDS011;3648;50.614;13.830;2023-07-20T08:15:02;1.90;;;1.30;;
7213;SDS011;3648;50.614;13.830;2023-07-20T08:17:29;1.67;;;1.10;;
7213;SDS011;3648;50.614;13.830;2023-07-20T08:19:56;1.10;;;1.00;;
7213;SDS011;3648;50.614;13.830;2023-07-20T08:22:23;1.00;;;0.90;;
7213;SDS011;3648;50.614;13.830;2023-07-20T08:24:52;0.90;;;0.70;;
7213;SDS011;3648;50.614;13.830;2023-07-20T08:27:19;1.20;;;1.10;;
7213;SDS011;3648;50.614;13.830;2023-07-20T08:29:46;0.90;;;0.90;;
7213;SDS011;3648;50.614;13.830;2023-07-20T08:32:13;13.90;;;2.20;;
7213;SDS011;3648;50.614;13.830;2023-07-20T08:34:41;4.67;;;1.40;;
7213;SDS011;3648;50.614;13.830;2023-07-20T08:37:08;0.77;;;0.77;;
7213;SDS011;3648;50.614;13.830;2023-07-20T08:39:36;0.90;;;0.87;;
7213;SDS011;3648;50.614;13.830;2023-07-20T08:42:05;0.80;;;0.80;;
7213;SDS011;3648;50.614;13.830;2023-07-20T08:44:33;1.20;;;1.10;;
7213;SDS011;3648;50.614;13.830;2023-07-20T08:47:02;1.37;;;0.90;;
7213;SDS011;3648;50.614;13.830;2023-07-20T08:49:31;1.17;;;1.00;;
7213;SDS011;3648;50.614;13.830;2023-07-20T08:51:59;1.93;;;0.97;;
7213;SDS011;3648;50.614;13.830;2023-07-20T08:54:27;0.97;;;0.80;;
7213;SDS011;3648;50.614;13.830;2023-07-20T08:56:58;0.93;;;0.90;;
7213;SDS011;3648;50.614;13.830;2023-07-20T08:59:30;0.87;;;0.70;;
7213;SDS011;3648;50.614;13.830;2023-07-20T09:01:59;1.57;;;0.80;;
7213;SDS011;3648;50.614;13.830;2023-07-20T09:04:26;1.80;;;1.30;;
7213;SDS011;3648;50.614;13.830;2023-07-20T09:06:53;2.07;;;0.93;;
7213;SDS011;3648;50.614;13.830;2023-07-20T09:09:21;1.27;;;1.00;;
7213;SDS011;3648;50.614;13.830;2023-07-20T09:11:48;1.30;;;1.20;;
7213;SDS011;3648;50.614;13.830;2023-07-20T09:14:16;1.60;;;1.40;;
7213;SDS011;3648;50.614;13.830;2023-07-20T09:16:48;1.23;;;1.13;;
7213;SDS011;3648;50.614;13.830;2023-07-20T09:19:16;2.00;;;1.30;;
7213;SDS011;3648;50.614;13.830;2023-07-20T09:21:46;1.20;;;1.00;;
7213;SDS011;3648;50.614;13.830;2023-07-20T09:24:14;1.70;;;1.33;;
7213;SDS011;3648;50.614;13.830;2023-07-20T09:26:48;1.23;;;1.13;;
7213;SDS011;3648;50.614;13.830;2023-07-20T09:29:17;1.63;;;1.20;;
7213;SDS011;3648;50.614;13.830;2023-07-20T09:31:52;6.30;;;1.30;;
7213;SDS011;3648;50.614;13.830;2023-07-20T09:34:28;1.20;;;1.10;;
7213;SDS011;3648;50.614;13.830;2023-07-20T09:36:59;1.53;;;1.43;;
7213;SDS011;3648;50.614;13.830;2023-07-20T09:39:26;1.50;;;1.17;;
7213;SDS011;3648;50.614;13.830;2023-07-20T09:41:54;1.80;;;1.30;;
7213;SDS011;3648;50.614;13.830;2023-07-20T09:44:21;1.77;;;1.40;;
7213;SDS011;3648;50.614;13.830;2023-07-20T09:46:49;1.10;;;1.00;;
7213;SDS011;3648;50.614;13.830;2023-07-20T09:49:18;2.53;;;1.37;;
7213;SDS011;3648;50.614;13.830;2023-07-20T09:51:45;1.40;;;1.20;;
7213;SDS011;3648;50.614;13.830;2023-07-20T09:54:13;1.30;;;1.20;;
7213;SDS011;3648;50.614;13.830;2023-07-20T09:56:43;1.67;;;1.30;;
7213;SDS011;3648;50.614;13.830;2023-07-20T09:59:14;1.60;;;1.30;;
7213;SDS011;3648;50.614;13.830;2023-07-20T10:01:41;1.77;;;1.30;;
7213;SDS011;3648;50.614;13.830;2023-07-20T10:04:10;1.50;;;1.40;;
7213;SDS011;3648;50.614;13.830;2023-07-20T10:06:42;1.70;;;1.40;;
7213;SDS011;3648;50.614;13.830;2023-07-20T10:09:11;2.20;;;1.40;;
7213;SDS011;3648;50.614;13.830;2023-07-20T10:11:43;2.40;;;1.30;;
7213;SDS011;3648;50.614;13.830;2023-07-20T10:14:15;1.30;;;1.20;;
7213;SDS011;3648;50.614;13.830;2023-07-20T10:16:50;3.10;;;1.60;;
7213;SDS011;3648;50.614;13.830;2023-07-20T10:19:21;2.50;;;1.67;;
7213;SDS011;3648;50.614;13.830;2023-07-20T10:21:54;2.77;;;1.20;;
7213;SDS011;3648;50.614;13.830;2023-07-20T10:24:26;1.73;;;1.10;;
7213;SDS011;3648;50.614;13.830;2023-07-20T10:26:55;1.57;;;1.20;;
7213;SDS011;3648;50.614;13.830;2023-07-20T10:29:22;1.20;;;1.10;;
7213;SDS011;3648;50.614;13.830;2023-07-20T10:31:53;1.47;;;1.20;;
7213;SDS011;3648;50.614;13.830;2023-07-20T10:34:21;1.23;;;1.00;;
7213;SDS011;3648;50.614;13.830;2023-07-20T10:36:57;1.00;;;0.90;;
7213;SDS011;3648;50.614;13.830;2023-07-20T10:39:25;1.93;;;1.10;;
7213;SDS011;3648;50.614;13.830;2023-07-20T10:42:01;1.20;;;1.10;;
7213;SDS011;3648;50.614;13.830;2023-07-20T10:44:29;1.87;;;1.00;;
7213;SDS011;3648;50.614;13.830;2023-07-20T10:47:00;1.17;;;1.07;;
7213;SDS011;3648;50.614;13.830;2023-07-20T10:49:27;1.37;;;1.27;;
7213;SDS011;3648;50.614;13.830;2023-07-20T10:51:57;1.53;;;1.00;;
7213;SDS011;3648;50.614;13.830;2023-07-20T10:54:48;1.60;;;1.10;;
7213;SDS011;3648;50.614;13.830;2023-07-20T10:57:22;1.23;;;1.10;;
7213;SDS011;3648;50.614;13.830;2023-07-20T11:00:10;1.33;;;1.23;;
7213;SDS011;3648;50.614;13.830;2023-07-20T11:02:45;1.30;;;1.10;;
7213;SDS011;3648;50.614;13.830;2023-07-20T11:05:31;1.20;;;1.10;;
7213;SDS011;3648;50.614;13.830;2023-07-20T11:08:10;1.20;;;1.00;;
7213;SDS011;3648;50.614;13.830;2023-07-20T11:10:38;1.50;;;1.10;;
7213;SDS011;3648;50.614;13.830;2023-07-20T11:13:15;1.00;;;0.83;;
7213;SDS011;3648;50.614;13.830;2023-07-20T11:15:47;1.90;;;1.00;;
7213;SDS011;3648;50.614;13.830;2023-07-20T11:18:14;1.40;;;1.00;;
7213;SDS011;3648;50.614;13.830;2023-07-20T11:20:42;1.53;;;1.00;;
7213;SDS011;3648;50.614;13.830;2023-07-20T11:23:10;1.00;;;0.90;;
7213;SDS011;3648;50.614;13.830;2023-07-20T11:25:38;1.27;;;0.93;;
7213;SDS011;3648;50.614;13.830;2023-07-20T11:28:07;2.63;;;1.10;;
7213;SDS011;3648;50.614;13.830;2023-07-20T11:30:36;2.27;;;0.90;;
7213;SDS011;3648;50.614;13.830;2023-07-20T11:33:04;1.33;;;0.97;;
7213;SDS011;3648;50.614;13.830;2023-07-20T11:35:31;2.03;;;1.20;;
7213;SDS011;3648;50.614;13.830;2023-07-20T11:38:03;1.00;;;0.80;;
7213;SDS011;3648;50.614;13.830;2023-07-20T11:40:33;1.30;;;1.03;;
7213;SDS011;3648;50.614;13.830;2023-07-20T11:43:00;1.00;;;0.80;;
7213;SDS011;3648;50.614;13.830;2023-07-20T11:45:28;1.20;;;1.10;;
7213;SDS011;3648;50.614;13.830;2023-07-20T11:47:58;1.30;;;0.97;;
7213;SDS011;3648;50.614;13.830;2023-07-20T11:50:25;1.40;;;1.10;;
7213;SDS011;3648;50.614;13.830;2023-07-20T11:52:52;0.87;;;0.87;;
7213;SDS011;3648;50.614;13.830;2023-07-20T11:55:19;1.37;;;1.10;;
7213;SDS011;3648;50.614;13.830;2023-07-20T11:58:05;2.47;;;1.10;;
7213;SDS011;3648;50.614;13.830;2023-07-20T12:00:32;0.73;;;0.73;;
7213;SDS011;3648;50.614;13.830;2023-07-20T12:03:00;1.40;;;0.97;;
7213;SDS011;3648;50.614;13.830;2023-07-20T12:05:28;1.10;;;1.00;;
7213;SDS011;3648;50.614;13.830;2023-07-20T12:07:55;0.83;;;0.80;;
7213;SDS011;3648;50.614;13.830;2023-07-20T12:10:25;0.90;;;0.90;;
7213;SDS011;3648;50.614;13.830;2023-07-20T12:13:00;1.50;;;1.20;;
7213;SDS011;3648;50.614;13.830;2023-07-20T12:15:29;1.53;;;0.90;;
7213;SDS011;3648;50.614;13.830;2023-07-20T12:17:57;1.13;;;1.03;;
7213;SDS011;3648;50.614;13.830;2023-07-20T12:20:26;0.87;;;0.87;;
7213;SDS011;3648;50.614;13.830;2023-07-20T12:22:55;1.70;;;0.90;;
7213;SDS011;3648;50.614;13.830;2023-07-20T12:25:32;2.73;;;0.80;;
7213;SDS011;3648;50.614;13.830;2023-07-20T12:28:00;3.10;;;1.00;;
7213;SDS011;3648;50.614;13.830;2023-07-20T12:30:30;1.63;;;0.70;;
7213;SDS011;3648;50.614;13.830;2023-07-20T12:32:58;2.87;;;1.00;;
7213;SDS011;3648;50.614;13.830;2023-07-20T12:35:25;1.60;;;1.10;;
7213;SDS011;3648;50.614;13.830;2023-07-20T12:37:52;1.20;;;1.07;;
7213;SDS011;3648;50.614;13.830;2023-07-20T12:40:19;1.23;;;1.03;;
7213;SDS011;3648;50.614;13.830;2023-07-20T12:42:46;1.10;;;1.00;;
7213;SDS011;3648;50.614;13.830;2023-07-20T12:45:13;1.70;;;0.90;;
7213;SDS011;3648;50.614;13.830;2023-07-20T12:47:42;2.23;;;1.10;;
7213;SDS011;3648;50.614;13.830;2023-07-20T12:50:09;1.60;;;1.10;;
7213;SDS011;3648;50.614;13.830;2023-07-20T12:52:36;2.10;;;1.00;;
7213;SDS011;3648;50.614;13.830;2023-07-20T12:55:04;1.20;;;0.93;;
7213;SDS011;3648;50.614;13.830;2023-07-20T12:57:32;1.33;;;1.23;;
7213;SDS011;3648;50.614;13.830;2023-07-20T13:00:00;1.10;;;1.00;;
7213;SDS011;3648;50.614;13.830;2023-07-20T13:02:28;3.70;;;1.07;;
7213;SDS011;3648;50.614;13.830;2023-07-20T13:04:57;1.17;;;1.07;;
7213;SDS011;3648;50.614;13.830;2023-07-20T13:07:30;1.13;;;1.03;;
7213;SDS011;3648;50.614;13.830;2023-07-20T13:09:58;1.80;;;1.10;;
7213;SDS011;3648;50.614;13.830;2023-07-20T13:12:26;1.40;;;1.00;;
7213;SDS011;3648;50.614;13.830;2023-07-20T13:14:54;2.30;;;1.10;;
7213;SDS011;3648;50.614;13.830;2023-07-20T13:17:21;3.17;;;1.00;;
7213;SDS011;3648;50.614;13.830;2023-07-20T13:19:49;7.50;;;1.30;;
7213;SDS011;3648;50.614;13.830;2023-07-20T13:22:18;1.87;;;0.80;;
7213;SDS011;3648;50.614;13.830;2023-07-20T13:24:45;1.43;;;1.20;;
7213;SDS011;3648;50.614;13.830;2023-07-20T13:27:13;1.60;;;1.00;;
7213;SDS011;3648;50.614;13.830;2023-07-20T13:29:41;1.10;;;1.00;;
7213;SDS011;3648;50.614;13.830;2023-07-20T13:32:08;1.20;;;0.90;;
7213;SDS011;3648;50.614;13.830;2023-07-20T13:34:35;1.20;;;1.10;;
7213;SDS011;3648;50.614;13.830;2023-07-20T13:37:02;1.13;;;0.80;;
7213;SDS011;3648;50.614;13.830;2023-07-20T13:39:31;2.03;;;0.87;;
7213;SDS011;3648;50.614;13.830;2023-07-20T13:41:58;1.63;;;0.73;;
7213;SDS011;3648;50.614;13.830;2023-07-20T13:44:27;1.23;;;0.80;;
7213;SDS011;3648;50.614;13.830;2023-07-20T13:46:54;1.03;;;0.97;;
7213;SDS011;3648;50.614;13.830;2023-07-20T13:49:21;0.90;;;0.87;;
7213;SDS011;3648;50.614;13.830;2023-07-20T13:51:49;1.80;;;1.10;;
7213;SDS011;3648;50.614;13.830;2023-07-20T13:54:16;1.83;;;1.00;;
7213;SDS011;3648;50.614;13.830;2023-07-20T13:56:45;1.90;;;0.90;;
7213;SDS011;3648;50.614;13.830;2023-07-20T13:59:12;1.77;;;1.10;;
7213;SDS011;3648;50.614;13.830;2023-07-20T14:01:39;1.70;;;1.03;;
7213;SDS011;3648;50.614;13.830;2023-07-20T14:04:06;4.80;;;1.20;;
7213;SDS011;3648;50.614;13.830;2023-07-20T14:06:34;1.73;;;1.20;;
7213;SDS011;3648;50.614;13.830;2023-07-20T14:09:02;1.27;;;1.00;;
7213;SDS011;3648;50.614;13.830;2023-07-20T14:11:29;1.20;;;1.10;;
7213;SDS011;3648;50.614;13.830;2023-07-20T14:13:58;0.97;;;0.87;;
7213;SDS011;3648;50.614;13.830;2023-07-20T14:16:25;1.30;;;1.17;;
7213;SDS011;3648;50.614;13.830;2023-07-20T14:18:52;15.07;;;2.23;;
7213;SDS011;3648;50.614;13.830;2023-07-20T14:21:19;1.30;;;1.20;;
7213;SDS011;3648;50.614;13.830;2023-07-20T14:23:48;1.80;;;1.33;;
7213;SDS011;3648;50.614;13.830;2023-07-20T14:26:16;3.20;;;1.63;;
7213;SDS011;3648;50.614;13.830;2023-07-20T14:28:43;1.10;;;1.00;;
7213;SDS011;3648;50.614;13.830;2023-07-20T14:31:11;1.40;;;1.23;;
7213;SDS011;3648;50.614;13.830;2023-07-20T14:33:39;1.83;;;1.20;;
7213;SDS011;3648;50.614;13.830;2023-07-20T14:36:06;1.20;;;1.10;;
7213;SDS011;3648;50.614;13.830;2023-07-20T14:38:33;1.20;;;1.03;;
7213;SDS011;3648;50.614;13.830;2023-07-20T14:41:01;0.73;;;0.73;;
7213;SDS011;3648;50.614;13.830;2023-07-20T14:43:28;1.00;;;0.90;;
7213;SDS011;3648;50.614;13.830;2023-07-20T14:45:55;1.20;;;1.10;;
7213;SDS011;3648;50.614;13.830;2023-07-20T14:48:24;0.80;;;0.80;;
7213;SDS011;3648;50.614;13.830;2023-07-20T14:50:51;0.83;;;0.80;;
7213;SDS011;3648;50.614;13.830;2023-07-20T14:53:18;0.80;;;0.80;;
7213;SDS011;3648;50.614;13.830;2023-07-20T14:55:45;1.00;;;0.90;;
7213;SDS011;3648;50.614;13.830;2023-07-20T14:58:12;1.07;;;0.97;;
7213;SDS011;3648;50.614;13.830;2023-07-20T15:00:39;1.13;;;0.80;;
7213;SDS011;3648;50.614;13.830;2023-07-20T15:03:06;0.60;;;0.60;;
7213;SDS011;3648;50.614;13.830;2023-07-20T15:05:36;1.80;;;1.20;;
7213;SDS011;3648;50.614;13.830;2023-07-20T15:08:03;0.80;;;0.80;;
7213;SDS011;3648;50.614;13.830;2023-07-20T15:10:31;2.03;;;0.83;;